Airfield :
LOGIN :

Register | Disclaimer

   EN    FR    IT 

 










Legend :    VFR   Marginal VFR   IFR   Intensive IFR   Very Intensive IFR
Visi :
Ceiling :
>= 8 km
>= 3000ft
5 to 8 km
1000 to 3000 ft
1500m to 5 km
500 to 1000 ft
800 to 1500m
200 to 500 ft
< 800m
< 200 ft
Symbols :   Thunderstorms  Fog  Heavy snow  Heavy precipitations  Wind > 20 kt
SIGMETs :     Misc.  Thunderstorms  Icing  Turbulence  Mountain Waves  Volcanic Ashes







- Airport Elevation : 288 ft
- IATA code : BZZ


EGVN - RAF Brize Norton

CURRENT METAR :
  • 241521Z 16006KT CAVOK 28/11 Q1017 NOSIG RMK BLU BLU

EXPIRED METARs :
  • 241450Z 15007KT CAVOK 28/12 Q1017 NOSIG RMK BLU BLU
  • 241419Z 17007KT CAVOK 28/12 Q1017 NOSIG RMK BLU BLU
  • 241350Z 16008KT CAVOK 27/10 Q1018 NOSIG RMK BLU BLU
  • 241320Z 15008KT CAVOK 28/10 Q1018 NOSIG RMK BLU BLU
  • 241250Z 18008KT CAVOK 28/09 Q1018 NOSIG RMK BLU BLU

TAF TAF EGVN
Valid from the 24 at 15:00 until the 25 at 15:00 UTC


241328Z 2415/2515 12006KT CAVOK
No reported NOTAMs for that airfield.



MET'MAP, your aeronautical weather chart ! - Copyright ORBIFLY December 2007 - Disclaimer

ORBIFLY MET'MAP TEAM :

Programming & Development : Alexandra Zaïnal
Concept & Development : Baudouin d'Aumeries
Co-Development & Prog : Marc-Olivier Méhu
Technical & hardware support : Manuel Goepfert

Contact : metmap@orbifly.com




SOURCES & CREDITS :

   NOAA